Terminal Aerodrome Forecast
Issued by NWS

Home | Current Version | Previous Version | Text Only | Print | Product List | Glossary On
Versions: 1 2 3 4 5 6 7 8 9 10 11 12 13 14 15 16 17
000
FTUS41 KGYX 070524
TAFRKD
TAF
KRKD 070524Z 0706/0806 00000KT 6SM BR SKC
     FM071200 16006KT P6SM SCT050 SCT100
     FM071900 17010KT P6SM SCT020 BKN050
     FM072300 17012KT 5SM -SHRA OVC030
      AMD LTD TO CLD VIS AND WIND=

USA.gov is the U.S. government's official web portal to all federal, state and local government web resources and services.